Time;durP1;ratioP1;P1;durP2;ratioP2;P2;SDS_P1;SDS_P2;PMS_P1;PMS_P2;Temp;Humidity;BMP_temperature;BMP_pressure;BME280_temperature;BME280_humidity;BME280_pressure;Samples;Min_cycle;Max_cycle;Signal;HPM_P1;HPM_P2
2023/04/30 00:00:28;;;;;;;36.00;25.92;;;;;;;8.04;100.00;101477.31;4959079;29;20474;-78
2023/04/30 00:02:54;;;;;;;34.22;25.58;;;;;;;8.05;100.00;101483.34;4955265;29;20115;-78
2023/04/30 00:05:21;;;;;;;31.00;24.20;;;;;;;7.99;100.00;101476.88;4957643;29;20142;-78
2023/04/30 00:07:47;;;;;;;31.67;23.98;;;;;;;7.94;100.00;101486.81;4958383;29;20097;-78
2023/04/30 00:10:14;;;;;;;32.67;24.38;;;;;;;7.89;100.00;101478.50;4958041;29;20138;-78
2023/04/30 00:12:41;;;;;;;31.08;24.42;;;;;;;7.85;100.00;101483.13;4958281;29;20091;-78
2023/04/30 00:15:10;;;;;;;34.65;24.98;;;;;;;7.80;100.00;101484.44;4957628;29;20134;-77
2023/04/30 00:17:37;;;;;;;31.77;24.10;;;;;;;7.82;100.00;101485.97;4956472;28;20425;-77
2023/04/30 00:20:04;;;;;;;34.08;25.13;;;;;;;7.84;100.00;101494.50;4950438;28;20515;-77
2023/04/30 00:22:32;;;;;;;31.10;25.00;;;;;;;7.81;100.00;101492.13;4951651;28;20077;-78
2023/04/30 00:24:58;;;;;;;31.77;25.55;;;;;;;7.75;100.00;101483.94;4952795;28;20514;-77
2023/04/30 00:27:25;;;;;;;34.22;26.85;;;;;;;7.71;100.00;101490.34;4951157;28;20111;-79
2023/04/30 00:29:52;;;;;;;33.20;26.20;;;;;;;7.62;100.00;101489.25;4950415;28;20394;-77
2023/04/30 00:32:20;;;;;;;36.75;27.83;;;;;;;7.65;100.00;101494.22;4951200;29;20055;-77
2023/04/30 00:34:46;;;;;;;34.00;27.50;;;;;;;7.56;100.00;101498.34;4955835;28;20101;-77
2023/04/30 00:37:13;;;;;;;35.45;27.98;;;;;;;7.55;100.00;101501.09;4956111;29;20055;-74
2023/04/30 00:39:39;;;;;;;39.50;30.20;;;;;;;7.49;100.00;101491.97;4956051;29;20126;-77
2023/04/30 00:42:07;;;;;;;36.92;28.58;;;;;;;7.45;100.00;101502.72;4955562;29;20453;-76
2023/04/30 00:44:33;;;;;;;36.42;28.95;;;;;;;7.41;100.00;101503.91;4956818;29;20079;-77
2023/04/30 00:47:00;;;;;;;33.35;25.10;;;;;;;7.48;100.00;101502.50;4955699;29;20130;-76
2023/04/30 00:49:28;;;;;;;28.83;23.60;;;;;;;7.40;100.00;101505.69;4955218;29;20058;-76
2023/04/30 00:51:55;;;;;;;28.52;22.38;;;;;;;7.38;100.00;101499.75;4955167;29;20114;-77
2023/04/30 00:54:23;;;;;;;29.45;23.70;;;;;;;7.34;100.00;101511.34;4952396;29;20138;-77
2023/04/30 00:56:50;;;;;;;26.85;21.33;;;;;;;7.32;100.00;101516.66;4935749;29;20487;-77
2023/04/30 00:59:21;;;;;;;28.67;21.23;;;;;;;7.35;100.00;101513.00;4936714;29;20058;-78
2023/04/30 01:01:47;;;;;;;28.92;21.10;;;;;;;7.19;100.00;101509.84;4944875;29;20131;-78
2023/04/30 01:04:14;;;;;;;26.35;21.70;;;;;;;7.15;100.00;101504.03;4937726;29;20463;-78
2023/04/30 01:06:43;;;;;;;30.60;21.40;;;;;;;7.14;100.00;101506.75;5103751;23;20069;-78
2023/04/30 01:09:10;;;;;;;28.75;21.08;;;;;;;7.10;100.00;101507.91;5010113;28;20057;-78
2023/04/30 01:11:48;;;;;;;30.35;20.98;;;;;;;7.05;100.00;101507.44;5014822;28;20385;-78
2023/04/30 01:14:25;;;;;;;27.00;20.42;;;;;;;7.02;100.00;101507.66;5014211;28;20050;-77
2023/04/30 01:17:00;;;;;;;27.23;20.58;;;;;;;6.95;100.00;101502.06;5003555;28;20109;-78
2023/04/30 01:19:50;;;;;;;26.80;20.23;;;;;;;6.89;100.00;101498.16;5016566;28;20053;-78
2023/04/30 01:22:32;;;;;;;30.73;21.02;;;;;;;6.88;100.00;101508.66;5007937;28;20052;-77
2023/04/30 01:25:21;;;;;;;26.10;19.85;;;;;;;6.91;100.00;101504.06;5013798;28;20132;-77
2023/04/30 01:28:05;;;;;;;26.73;20.02;;;;;;;6.97;100.00;101506.22;5000368;28;20115;-77
2023/04/30 01:30:33;;;;;;;27.33;20.40;;;;;;;6.92;100.00;101503.13;4987707;28;20076;-77
2023/04/30 01:33:00;;;;;;;27.40;20.77;;;;;;;6.86;100.00;101494.94;5010962;28;20129;-77
2023/04/30 01:35:41;;;;;;;29.77;21.45;;;;;;;6.87;100.00;101499.19;5000985;28;20051;-78
2023/04/30 01:38:20;;;;;;;29.38;21.65;;;;;;;6.79;100.00;101502.34;5002348;28;20137;-77
2023/04/30 01:40:53;;;;;;;28.67;20.88;;;;;;;6.78;100.00;101498.09;5004002;28;20081;-77
2023/04/30 01:43:31;;;;;;;28.73;21.02;;;;;;;6.80;100.00;101500.56;5015225;28;20432;-78
2023/04/30 01:46:05;;;;;;;28.13;21.02;;;;;;;6.79;100.00;101506.72;4999898;28;20105;-77
2023/04/30 01:48:43;;;;;;;30.27;20.88;;;;;;;6.76;100.00;101499.13;5000203;28;20052;-77
2023/04/30 01:51:19;;;;;;;30.80;20.52;;;;;;;6.72;100.00;101501.13;5010116;28;20152;-77
2023/04/30 01:53:46;;;;;;;27.50;20.05;;;;;;;6.81;100.00;101505.66;4998210;28;20078;-77
2023/04/30 01:56:21;;;;;;;26.80;20.45;;;;;;;6.71;100.00;101504.66;4995875;28;20060;-77
2023/04/30 01:58:50;;;;;;;25.27;19.58;;;;;;;6.68;100.00;101498.84;5012851;28;20056;-77
2023/04/30 02:01:27;;;;;;;25.17;19.50;;;;;;;6.62;100.00;101505.31;5003769;28;20088;-77
2023/04/30 02:03:55;;;;;;;27.90;20.58;;;;;;;6.59;100.00;101506.38;5009540;28;20052;-77
2023/04/30 02:06:25;;;;;;;27.23;20.63;;;;;;;6.53;100.00;101506.00;5018719;28;20050;-77
2023/04/30 02:08:52;;;;;;;28.50;20.92;;;;;;;6.54;100.00;101497.25;4999680;28;20119;-76
2023/04/30 02:11:18;;;;;;;28.77;20.00;;;;;;;6.49;100.00;101504.53;5005951;28;20088;-75
2023/04/30 02:13:45;;;;;;;28.63;19.52;;;;;;;6.51;100.00;101510.47;5011112;28;20159;-75
2023/04/30 02:16:13;;;;;;;26.38;20.42;;;;;;;6.46;100.00;101509.97;4994854;28;20062;-75
2023/04/30 02:18:40;;;;;;;27.30;19.98;;;;;;;6.48;100.00;101513.28;5010774;28;20154;-75
2023/04/30 02:21:06;;;;;;;26.45;18.77;;;;;;;6.43;100.00;101510.19;5003304;28;20050;-75
2023/04/30 02:23:33;;;;;;;24.65;19.73;;;;;;;6.41;100.00;101512.88;4996481;28;20097;-75
2023/04/30 02:26:00;;;;;;;27.48;20.65;;;;;;;6.34;100.00;101511.66;5002575;28;20137;-76
2023/04/30 02:28:26;;;;;;;26.90;19.65;;;;;;;6.24;100.00;101503.66;5009968;28;20428;-76
2023/04/30 02:30:53;;;;;;;28.95;20.30;;;;;;;6.21;100.00;101506.47;5010460;28;20503;-76
2023/04/30 02:33:21;;;;;;;25.77;19.65;;;;;;;6.15;100.00;101503.44;5009732;28;20099;-76
2023/04/30 02:35:48;;;;;;;26.20;19.77;;;;;;;6.13;100.00;101507.97;5005587;28;20049;-76
2023/04/30 02:38:14;;;;;;;28.00;20.65;;;;;;;6.09;100.00;101517.72;5003316;28;20437;-76
2023/04/30 02:40:41;;;;;;;27.90;20.75;;;;;;;6.09;100.00;101517.72;5004661;28;20073;-76
2023/04/30 02:43:08;;;;;;;30.00;20.75;;;;;;;6.15;100.00;101506.06;5009672;28;20045;-77
2023/04/30 02:45:35;;;;;;;26.27;20.45;;;;;;;6.09;100.00;101517.72;4993111;28;20252;-76
2023/04/30 02:48:02;;;;;;;27.38;20.27;;;;;;;6.01;100.00;101514.81;5003093;28;20085;-76
2023/04/30 02:50:29;;;;;;;27.63;20.33;;;;;;;5.98;100.00;101525.41;5001429;28;20092;-76
2023/04/30 02:52:56;;;;;;;26.25;19.65;;;;;;;5.96;100.00;101524.69;5010463;28;20073;-75
2023/04/30 02:55:23;;;;;;;27.98;20.35;;;;;;;5.91;100.00;101524.16;5004896;28;20054;-76
2023/04/30 02:57:49;;;;;;;28.58;20.70;;;;;;;5.89;100.00;101521.69;5010014;28;20416;-76
2023/04/30 03:00:16;;;;;;;26.15;20.15;;;;;;;5.80;100.00;101522.25;5003893;28;20081;-76
2023/04/30 03:02:43;;;;;;;29.00;20.15;;;;;;;5.86;100.00;101523.63;5003449;28;20124;-76
2023/04/30 03:05:11;;;;;;;30.55;22.55;;;;;;;5.83;100.00;101524.66;5008804;28;20580;-76
2023/04/30 03:07:39;;;;;;;32.60;19.98;;;;;;;5.82;100.00;101525.59;4992227;28;20046;-76
2023/04/30 03:10:07;;;;;;;28.52;19.88;;;;;;;5.80;100.00;101529.22;5006653;28;20136;-74
2023/04/30 03:12:34;;;;;;;28.23;20.60;;;;;;;5.70;100.00;101517.78;5005429;28;20055;-76
2023/04/30 03:15:00;;;;;;;30.63;21.35;;;;;;;5.63;100.00;101526.00;4998892;28;20125;-75
2023/04/30 03:17:27;;;;;;;29.67;20.90;;;;;;;5.62;100.00;101534.72;5004981;28;20054;-75
2023/04/30 03:19:53;;;;;;;29.17;21.67;;;;;;;5.58;100.00;101528.06;5004741;28;20135;-76
2023/04/30 03:22:22;;;;;;;28.83;21.55;;;;;;;5.57;100.00;101531.59;4998546;28;20159;-74
2023/04/30 03:24:50;;;;;;;28.80;20.48;;;;;;;5.55;100.00;101525.69;5008943;28;20097;-75
2023/04/30 03:27:17;;;;;;;31.20;20.80;;;;;;;5.53;100.00;101529.31;4998151;28;20563;-74
2023/04/30 03:29:43;;;;;;;26.73;20.50;;;;;;;5.49;100.00;101526.09;5004930;28;20512;-75
2023/04/30 03:32:12;;;;;;;29.67;21.27;;;;;;;5.48;100.00;101526.19;5011417;28;20049;-75
2023/04/30 03:34:38;;;;;;;30.75;22.05;;;;;;;5.48;100.00;101523.59;5001253;28;20145;-75
2023/04/30 03:37:05;;;;;;;31.23;21.52;;;;;;;5.46;100.00;101528.88;5008216;28;20096;-75
2023/04/30 03:39:32;;;;;;;27.95;21.50;;;;;;;5.49;100.00;101535.63;5010832;28;20153;-75
2023/04/30 03:42:02;;;;;;;31.20;21.35;;;;;;;5.48;100.00;101531.38;5010033;28;20133;-75
2023/04/30 03:44:29;;;;;;;30.05;21.15;;;;;;;5.48;100.00;101531.38;5011710;28;20060;-75
2023/04/30 03:46:55;;;;;;;29.73;21.48;;;;;;;5.51;100.00;101534.59;5013351;28;20076;-75
2023/04/30 03:49:22;;;;;;;34.13;23.60;;;;;;;5.60;100.00;101539.19;5011986;28;20133;-75
2023/04/30 03:51:48;;;;;;;35.90;23.92;;;;;;;5.62;100.00;101545.13;5012845;28;20048;-75
2023/04/30 03:54:15;;;;;;;33.75;23.58;;;;;;;5.62;100.00;101549.47;5003034;28;20368;-74
2023/04/30 03:56:42;;;;;;;39.10;24.20;;;;;;;5.56;100.00;101542.94;5001867;28;20452;-75
2023/04/30 03:59:10;;;;;;;37.28;25.58;;;;;;;5.53;100.00;101543.13;5011882;28;20132;-76
2023/04/30 04:01:36;;;;;;;37.00;24.48;;;;;;;5.51;100.00;101552.78;5011891;28;20042;-76
2023/04/30 04:04:03;;;;;;;36.97;24.50;;;;;;;5.52;100.00;101546.66;5012148;28;20085;-75
2023/04/30 04:06:30;;;;;;;34.58;24.00;;;;;;;5.54;100.00;101542.19;5009193;28;20050;-76
2023/04/30 04:08:56;;;;;;;34.72;24.58;;;;;;;5.49;100.00;101541.66;5011921;28;20401;-74
2023/04/30 04:11:23;;;;;;;38.28;24.65;;;;;;;5.46;100.00;101536.66;5003562;28;20144;-75
2023/04/30 04:13:50;;;;;;;39.78;25.23;;;;;;;5.46;100.00;101541.88;5005870;28;20121;-75
2023/04/30 04:16:18;;;;;;;34.75;23.33;;;;;;;5.49;100.00;101546.84;5008863;28;20563;-75
2023/04/30 04:18:44;;;;;;;38.47;25.50;;;;;;;5.48;100.00;101552.16;4999631;28;20081;-75
2023/04/30 04:21:15;;;;;;;33.22;24.25;;;;;;;5.50;100.00;101551.13;5010277;28;20049;-75
2023/04/30 04:23:41;;;;;;;31.77;23.08;;;;;;;5.53;100.00;101550.91;5003924;28;20099;-75
2023/04/30 04:26:08;;;;;;;33.78;22.48;;;;;;;5.55;100.00;101554.25;5005462;28;20060;-75
2023/04/30 04:28:36;;;;;;;35.53;22.38;;;;;;;5.56;100.00;101555.91;5010695;28;20084;-75
2023/04/30 04:31:03;;;;;;;30.88;21.80;;;;;;;5.54;100.00;101546.56;5004460;28;20092;-75
2023/04/30 04:33:31;;;;;;;31.52;21.48;;;;;;;5.49;100.00;101544.25;5009085;28;20523;-75
2023/04/30 04:35:58;;;;;;;27.33;19.52;;;;;;;5.50;100.00;101542.50;5004653;28;20049;-75
2023/04/30 04:38:25;;;;;;;26.90;19.90;;;;;;;5.57;100.00;101544.59;5008391;28;20074;-76
2023/04/30 04:40:53;;;;;;;30.50;20.70;;;;;;;5.61;100.00;101545.22;5008666;28;20108;-75
2023/04/30 04:43:19;;;;;;;29.17;21.40;;;;;;;5.59;100.00;101545.31;5002551;28;20050;-75
2023/04/30 04:45:47;;;;;;;30.30;20.75;;;;;;;5.65;100.00;101549.28;5004675;28;20402;-76
2023/04/30 04:48:13;;;;;;;34.15;23.30;;;;;;;5.77;100.00;101552.81;5002568;28;20140;-76
2023/04/30 04:50:41;;;;;;;29.58;21.55;;;;;;;5.83;100.00;101552.38;5009954;28;20124;-76
2023/04/30 04:53:08;;;;;;;34.22;22.63;;;;;;;5.94;100.00;101550.78;5006325;28;20136;-76
2023/04/30 04:55:35;;;;;;;34.92;23.50;;;;;;;6.01;100.00;101553.78;5006628;28;20055;-76
2023/04/30 04:58:01;;;;;;;34.88;22.55;;;;;;;6.07;100.00;101550.78;5009744;28;20409;-76
2023/04/30 05:00:28;;;;;;;34.22;23.52;;;;;;;6.14;100.00;101557.22;5009738;28;20086;-75
2023/04/30 05:02:55;;;;;;;37.03;23.77;;;;;;;6.20;100.00;101550.75;5007175;28;20057;-76
2023/04/30 05:05:22;;;;;;;33.05;23.65;;;;;;;6.30;100.00;101555.22;5002210;28;20072;-75
2023/04/30 05:07:51;;;;;;;37.90;24.63;;;;;;;6.43;100.00;101556.97;5003907;28;20405;-75
2023/04/30 05:10:17;;;;;;;30.35;22.35;;;;;;;6.59;100.00;101560.16;5001472;28;20077;-76
2023/04/30 05:12:44;;;;;;;34.42;23.40;;;;;;;6.83;100.00;101566.22;4996356;28;20133;-76
2023/04/30 05:15:13;;;;;;;31.20;21.65;;;;;;;7.36;100.00;101568.50;5004129;28;20057;-76
2023/04/30 05:17:40;;;;;;;26.52;20.20;;;;;;;8.17;100.00;101571.88;5006570;28;20535;-76
2023/04/30 05:20:08;;;;;;;26.17;19.27;;;;;;;9.03;100.00;101558.16;5002790;28;20682;-75
2023/04/30 05:22:35;;;;;;;23.40;17.85;;;;;;;10.09;100.00;101566.75;5004711;28;20070;-75
2023/04/30 05:25:03;;;;;;;22.67;16.90;;;;;;;11.04;98.18;101579.47;5008744;28;20125;-74
2023/04/30 05:27:30;;;;;;;23.80;17.50;;;;;;;12.15;91.99;101585.91;5006120;28;20061;-74
2023/04/30 05:29:56;;;;;;;20.48;15.38;;;;;;;13.16;85.80;101565.78;5009472;28;20046;-75
2023/04/30 05:32:23;;;;;;;18.60;15.18;;;;;;;13.69;80.55;101559.63;5003926;28;20535;-75
2023/04/30 05:34:50;;;;;;;19.15;13.48;;;;;;;14.18;76.53;101561.56;5003919;28;20054;-75
2023/04/30 05:37:18;;;;;;;18.13;14.13;;;;;;;14.41;74.32;101561.00;5002237;28;20132;-75
2023/04/30 05:39:45;;;;;;;18.98;14.30;;;;;;;14.86;72.20;101552.78;4997296;28;20129;-75
2023/04/30 05:42:13;;;;;;;16.42;14.10;;;;;;;15.05;71.45;101562.22;5001760;28;20129;-76
2023/04/30 05:44:40;;;;;;;19.60;14.80;;;;;;;15.46;69.17;101542.78;5008166;28;20694;-75
2023/04/30 05:47:07;;;;;;;18.00;13.05;;;;;;;15.57;68.71;101544.31;5007810;28;20141;-76
2023/04/30 05:49:33;;;;;;;17.42;13.82;;;;;;;15.91;67.82;101550.19;5007735;28;20069;-77
2023/04/30 05:52:02;;;;;;;16.73;14.55;;;;;;;16.34;66.24;101544.59;5001885;28;20528;-76
2023/04/30 05:54:28;;;;;;;17.50;14.50;;;;;;;16.34;66.40;101547.22;5000342;28;20046;-76
2023/04/30 05:56:55;;;;;;;18.63;15.77;;;;;;;16.05;66.10;101559.22;5002359;28;20049;-76
2023/04/30 05:59:24;;;;;;;20.10;16.00;;;;;;;15.09;67.55;101561.75;4994596;28;20116;-76
2023/04/30 06:01:51;;;;;;;19.88;16.65;;;;;;;14.79;68.53;101564.94;5007354;28;20074;-76
2023/04/30 06:04:18;;;;;;;18.10;15.15;;;;;;;15.23;68.50;101565.53;5006134;28;20125;-76
2023/04/30 06:06:44;;;;;;;20.90;15.93;;;;;;;14.95;69.29;101575.53;5007391;28;20496;-76
2023/04/30 06:09:11;;;;;;;20.83;15.43;;;;;;;15.22;68.25;101562.06;5001719;28;20094;-76
2023/04/30 06:11:38;;;;;;;16.52;14.65;;;;;;;15.73;68.33;101564.53;5000192;28;20050;-75
2023/04/30 06:14:04;;;;;;;19.55;15.02;;;;;;;14.75;68.82;101567.06;4999085;28;20057;-76
2023/04/30 06:16:32;;;;;;;19.23;15.18;;;;;;;15.46;68.44;101568.34;5005831;28;20054;-76
2023/04/30 06:18:59;;;;;;;21.35;15.05;;;;;;;15.89;66.77;101549.53;5008215;28;20073;-76
2023/04/30 06:21:26;;;;;;;19.55;15.05;;;;;;;15.26;67.05;101552.00;5005537;28;20530;-76
2023/04/30 06:23:52;;;;;;;17.60;15.00;;;;;;;14.89;68.01;101555.91;4999835;28;20050;-76
2023/04/30 06:26:19;;;;;;;18.90;14.93;;;;;;;14.84;68.48;101557.38;4995894;28;20128;-75
2023/04/30 06:28:46;;;;;;;21.00;15.65;;;;;;;14.39;68.98;101566.44;5000011;28;20104;-76
2023/04/30 06:31:13;;;;;;;19.08;14.95;;;;;;;14.99;69.33;101568.13;5001368;28;20428;-75
2023/04/30 06:33:41;;;;;;;20.00;15.32;;;;;;;15.70;67.36;101549.06;5000108;28;20050;-75
2023/04/30 06:36:07;;;;;;;17.20;15.38;;;;;;;16.00;65.76;101536.97;4995864;28;20054;-75
2023/04/30 06:38:34;;;;;;;18.85;15.50;;;;;;;15.47;67.12;101555.00;5005897;28;20141;-75
2023/04/30 06:41:01;;;;;;;18.15;15.77;;;;;;;15.88;66.30;101547.06;5006981;28;20052;-75
2023/04/30 06:43:27;;;;;;;19.00;15.90;;;;;;;17.24;63.76;101535.16;5005839;28;20140;-75
2023/04/30 06:45:54;;;;;;;19.33;15.13;;;;;;;18.21;61.90;101534.19;5009895;28;20084;-76
2023/04/30 06:48:20;;;;;;;17.48;14.40;;;;;;;18.71;60.05;101529.09;4996093;28;20049;-75
2023/04/30 06:50:48;;;;;;;20.05;15.38;;;;;;;18.52;59.62;101533.13;4994416;28;20579;-76
2023/04/30 06:53:15;;;;;;;19.40;14.93;;;;;;;19.26;58.64;101525.78;4995879;28;20580;-75
2023/04/30 06:55:42;;;;;;;18.15;14.25;;;;;;;19.33;57.47;101518.69;4998105;28;20105;-76
2023/04/30 06:58:09;;;;;;;17.77;14.75;;;;;;;19.29;57.39;101519.25;4996414;28;20096;-75
2023/04/30 07:00:36;;;;;;;16.17;14.27;;;;;;;19.18;57.43;101536.50;5001551;28;20093;-75
2023/04/30 07:03:03;;;;;;;18.58;14.30;;;;;;;18.47;58.07;101539.00;5005267;28;20128;-75
2023/04/30 07:08:02;;;;;;;16.25;14.45;;;;;;;18.75;59.00;101536.50;4954053;28;20055;-76
2023/04/30 07:10:29;;;;;;;15.75;14.15;;;;;;;18.83;58.51;101532.91;4953848;28;20146;-77
2023/04/30 07:12:56;;;;;;;20.48;15.48;;;;;;;18.34;58.42;101528.25;4957154;28;20502;-76
2023/04/30 07:15:22;;;;;;;17.48;14.60;;;;;;;18.22;59.45;101540.31;4956773;28;20063;-76
2023/04/30 07:17:52;;;;;;;17.60;14.48;;;;;;;18.74;58.12;101528.72;4948250;29;20463;-77
2023/04/30 07:20:18;;;;;;;18.92;13.93;;;;;;;18.81;57.53;101522.50;4951137;29;20138;-77
2023/04/30 07:22:45;;;;;;;18.55;14.52;;;;;;;18.46;59.16;101539.16;4951925;29;20151;-77
2023/04/30 07:25:14;;;;;;;17.35;15.55;;;;;;;19.00;58.40;101533.47;4951909;29;20502;-76
2023/04/30 07:27:41;;;;;;;17.83;15.13;;;;;;;20.01;56.73;101522.44;4952675;28;20503;-77
2023/04/30 07:30:09;;;;;;;17.38;15.30;;;;;;;20.84;54.51;101516.00;4949437;29;20051;-77
2023/04/30 07:32:36;;;;;;;18.13;14.57;;;;;;;20.28;54.78;101522.56;4951190;29;20487;-78
2023/04/30 07:35:13;;;;;;;18.40;15.88;;;;;;;20.19;56.11;101533.34;4951736;29;20146;-78
2023/04/30 07:37:40;;;;;;;17.10;14.77;;;;;;;17.36;59.56;101539.03;4950433;28;20082;-77
2023/04/30 07:40:11;;;;;;;18.15;16.23;;;;;;;19.25;58.51;101537.41;4952347;28;20073;-77
2023/04/30 07:42:40;;;;;;;21.57;16.30;;;;;;;19.96;56.61;101527.50;4950573;28;20227;-77
2023/04/30 07:45:08;;;;;;;20.92;16.48;;;;;;;18.31;58.35;101535.75;4950981;29;20376;-77
2023/04/30 07:47:35;;;;;;;21.55;19.25;;;;;;;19.48;57.33;101529.19;4945373;28;20057;-77
2023/04/30 07:50:02;;;;;;;20.77;16.55;;;;;;;19.50;57.45;101513.91;4950801;29;20066;-77
2023/04/30 07:52:28;;;;;;;24.15;16.20;;;;;;;19.47;57.72;101516.94;4948147;29;20118;-78
2023/04/30 07:54:55;;;;;;;17.05;15.13;;;;;;;19.52;57.46;101522.53;4951142;29;20043;-77
2023/04/30 07:57:22;;;;;;;19.00;15.75;;;;;;;18.96;58.28;101532.22;4950426;28;20150;-76
2023/04/30 07:59:50;;;;;;;19.40;15.90;;;;;;;19.72;57.07;101525.31;4951030;29;20047;-77
2023/04/30 08:02:16;;;;;;;18.95;16.58;;;;;;;20.30;57.01;101533.81;4946102;28;20086;-78
2023/04/30 08:04:43;;;;;;;18.45;16.38;;;;;;;19.49;57.27;101518.38;4951946;29;20066;-78
2023/04/30 08:07:09;;;;;;;18.55;15.82;;;;;;;18.35;59.95;101540.50;4947397;28;20058;-78
2023/04/30 08:09:36;;;;;;;17.80;15.93;;;;;;;19.73;58.31;101529.63;4952100;28;20138;-78
2023/04/30 08:12:03;;;;;;;16.45;14.73;;;;;;;21.23;56.79;101533.06;4947192;29;20059;-78
2023/04/30 08:14:30;;;;;;;17.95;15.68;;;;;;;20.62;55.87;101525.16;4946086;28;20098;-78
2023/04/30 08:16:59;;;;;;;20.85;16.50;;;;;;;20.56;54.79;101517.97;4952760;28;20054;-78
2023/04/30 08:19:26;;;;;;;19.25;17.10;;;;;;;19.66;57.18;101542.03;4955522;29;20055;-77
2023/04/30 08:21:53;;;;;;;19.40;16.30;;;;;;;19.79;57.37;101534.97;4951677;29;20533;-77
2023/04/30 08:24:21;;;;;;;;;;;;;;;19.99;57.00;101535.09;4958958;29;20102;-78
2023/04/30 08:26:47;;;;;;;;;;;;;;;19.93;56.84;101541.16;4958266;28;19922;-79
2023/04/30 08:29:14;;;;;;;;;;;;;;;19.15;59.02;101539.53;4957773;29;20017;-77
2023/04/30 08:31:40;;;;;;;;;;;;;;;19.72;56.49;101512.03;4956012;29;19960;-78
2023/04/30 08:34:08;;;;;;;17.75;15.18;;;;;;;19.43;56.13;101516.50;4953233;29;19933;-78
2023/04/30 08:36:35;;;;;;;;;;;;;;;19.17;56.90;101511.00;4957559;28;20016;-79
2023/04/30 08:39:01;;;;;;;;;;;;;;;19.04;56.69;101514.34;4963693;29;19933;-78
2023/04/30 08:41:31;;;;;;;;;;;;;;;19.74;55.64;101516.16;4956810;29;20379;-78
2023/04/30 08:44:01;;;;;;;;;;;;;;;18.45;57.76;101530.41;4973135;29;19934;-78
2023/04/30 08:46:29;;;;;;;;;;;;;;;20.05;56.50;101526.34;4970884;29;19937;-78
2023/04/30 08:48:56;;;;;;;;;;;;;;;20.05;55.52;101521.03;4964159;29;19926;-79
2023/04/30 08:51:24;;;;;;;;;;;;;;;19.98;57.90;101533.44;4953981;29;19972;-78
2023/04/30 08:53:51;;;;;;;;;;;;;;;20.52;56.67;101530.03;4955752;29;19927;-77
2023/04/30 08:56:17;;;;;;;;;;;;;;;19.44;56.59;101512.84;4953287;29;20025;-76
2023/04/30 08:58:43;;;;;;;;;;;;;;;19.27;58.47;101518.63;4955721;29;20084;-78
2023/04/30 09:01:10;;;;;;;13.85;12.35;;;;;;;19.25;56.42;101504.72;4956703;29;19965;-77
2023/04/30 09:03:39;;;;;;;18.15;13.15;;;;;;;19.16;57.07;101507.50;4955397;29;20086;-77
2023/04/30 09:06:06;;;;;;;14.45;12.95;;;;;;;19.87;55.41;101499.44;4954250;29;20090;-76
2023/04/30 09:08:44;;;;;;;14.82;12.30;;;;;;;19.34;55.77;101496.44;4953790;29;20403;-78
2023/04/30 09:11:21;;;;;;;14.70;12.88;;;;;;;18.72;57.14;101507.72;4953874;29;20064;-75
2023/04/30 09:13:51;;;;;;;14.52;12.30;;;;;;;19.55;56.24;101509.69;4955069;29;20062;-78
2023/04/30 09:16:18;;;;;;;13.82;12.05;;;;;;;19.89;54.40;101497.41;4952670;28;20459;-77
2023/04/30 09:18:44;;;;;;;11.68;10.18;;;;;;;19.03;54.73;101498.63;4954755;29;20146;-77
2023/04/30 09:21:11;;;;;;;12.88;10.77;;;;;;;18.67;55.70;101496.84;4954147;29;20055;-77
2023/04/30 09:23:55;;;;;;;13.23;10.35;;;;;;;19.25;54.76;101489.63;4955208;29;20142;-77
2023/04/30 09:26:27;;;;;;;13.15;11.20;;;;;;;19.83;54.91;101487.59;4951486;28;20051;-77
2023/04/30 09:28:58;;;;;;;11.77;10.23;;;;;;;19.51;55.22;101479.22;4955627;29;20055;-77
2023/04/30 09:31:25;;;;;;;10.43;8.45;;;;;;;18.48;54.96;101473.56;4951585;29;20047;-77
2023/04/30 09:33:52;;;;;;;12.82;8.98;;;;;;;18.70;56.42;101479.75;4953923;29;20881;-78
2023/04/30 09:36:19;;;;;;;13.10;9.43;;;;;;;18.87;55.64;101468.72;4951047;29;20055;-77
2023/04/30 09:38:46;;;;;;;9.98;7.95;;;;;;;18.68;55.45;101461.38;4957455;28;20141;-77
2023/04/30 09:41:24;;;;;;;9.00;7.28;;;;;;;18.72;54.86;101452.03;4957979;28;20150;-77
2023/04/30 09:43:50;;;;;;;10.30;7.72;;;;;;;17.67;56.37;101461.34;4958832;28;20367;-77
2023/04/30 09:46:20;;;;;;;8.10;6.60;;;;;;;18.28;56.64;101467.22;4958612;28;20050;-78
2023/04/30 09:48:48;;;;;;;8.77;6.30;;;;;;;17.52;55.80;101456.81;4961330;28;20047;-77
2023/04/30 09:51:15;;;;;;;6.88;5.70;;;;;;;17.64;55.88;101461.69;4960446;28;20042;-77
2023/04/30 09:53:43;;;;;;;7.68;6.25;;;;;;;17.81;56.48;101455.25;4963272;28;20039;-77
2023/04/30 09:56:12;;;;;;;7.80;5.90;;;;;;;17.87;57.29;101457.16;4961646;28;20078;-78
2023/04/30 09:58:49;;;;;;;6.25;5.35;;;;;;;18.02;56.33;101457.94;4967191;28;20078;-78
2023/04/30 10:01:17;;;;;;;6.87;5.33;;;;;;;17.85;56.12;101454.69;4964450;28;20062;-79
2023/04/30 10:03:46;;;;;;;7.60;6.03;;;;;;;17.65;56.37;101452.75;4961985;28;20303;-78
2023/04/30 10:06:14;;;;;;;8.30;6.43;;;;;;;18.11;56.54;101456.84;4959195;28;20430;-78
2023/04/30 10:08:44;;;;;;;8.45;6.75;;;;;;;17.85;56.37;101457.34;4957223;29;20074;-78
2023/04/30 10:11:16;;;;;;;8.50;6.38;;;;;;;18.23;57.02;101447.41;4956065;29;20062;-77
2023/04/30 10:13:51;;;;;;;7.78;5.97;;;;;;;17.85;56.58;101443.28;4955887;29;20047;-79
2023/04/30 10:16:28;;;;;;;9.07;6.82;;;;;;;17.72;57.30;101443.09;4953194;28;20050;-78
2023/04/30 10:18:58;;;;;;;11.65;7.55;;;;;;;17.69;57.02;101438.16;4953203;29;20455;-78
2023/04/30 10:21:27;;;;;;;8.73;6.95;;;;;;;17.81;57.94;101436.72;4951675;29;20102;-78
2023/04/30 10:23:57;;;;;;;7.30;5.00;;;;;;;17.22;56.92;101432.19;4953073;29;20374;-77
2023/04/30 10:26:24;;;;;;;6.50;5.05;;;;;;;17.80;56.04;101424.47;4949895;28;20141;-77
2023/04/30 10:28:54;;;;;;;6.68;5.68;;;;;;;17.77;56.40;101427.50;4951900;29;20082;-78
2023/04/30 10:31:21;;;;;;;7.68;5.85;;;;;;;18.14;56.19;101426.50;4952628;29;20051;-76
2023/04/30 10:34:02;;;;;;;7.65;5.65;;;;;;;18.91;54.76;101416.09;4953315;28;20053;-77
2023/04/30 10:36:37;;;;;;;6.95;6.00;;;;;;;18.44;55.96;101409.50;4950391;29;20521;-77
2023/04/30 10:39:05;;;;;;;7.78;6.13;;;;;;;18.47;55.99;101416.25;4950540;28;20066;-78
2023/04/30 10:41:32;;;;;;;6.20;5.28;;;;;;;19.01;55.16;101407.81;4954307;29;20127;-78
2023/04/30 10:44:04;;;;;;;6.45;4.80;;;;;;;18.67;55.27;101397.94;4953790;29;20125;-77
2023/04/30 10:46:31;;;;;;;6.80;5.30;;;;;;;18.34;55.83;101410.84;4952153;28;20073;-77
2023/04/30 10:48:59;;;;;;;6.90;4.72;;;;;;;18.92;55.17;101403.63;4951841;29;20134;-78
2023/04/30 10:51:45;;;;;;;5.95;4.72;;;;;;;18.98;54.21;101381.66;4952544;29;20506;-77
2023/04/30 10:54:13;;;;;;;16.77;6.63;;;;;;;18.61;54.15;101385.44;4954062;29;20062;-78
2023/04/30 10:56:40;;;;;;;7.45;5.18;;;;;;;18.79;53.88;101388.47;4952034;29;20047;-78
2023/04/30 10:59:09;;;;;;;7.28;4.72;;;;;;;19.28;54.17;101388.41;4952458;29;20086;-77
2023/04/30 11:01:55;;;;;;;6.97;4.45;;;;;;;18.95;53.63;101371.44;4953259;29;20151;-77
2023/04/30 11:04:21;;;;;;;4.85;4.03;;;;;;;18.96;54.35;101371.25;4952430;29;20113;-78
2023/04/30 11:07:10;;;;;;;8.70;4.60;;;;;;;19.43;54.08;101370.53;4951227;28;20126;-78
2023/04/30 11:09:40;;;;;;;5.35;4.13;;;;;;;19.23;52.76;101364.28;4952111;29;20394;-79
2023/04/30 11:12:13;;;;;;;4.50;3.60;;;;;;;19.99;53.22;101359.75;4954929;29;20166;-79
2023/04/30 11:14:43;;;;;;;3.92;3.38;;;;;;;19.87;51.11;101342.75;4951849;29;20126;-78
2023/04/30 11:17:11;;;;;;;5.63;3.15;;;;;;;19.52;51.52;101345.50;4952620;28;20518;-77
2023/04/30 11:19:47;;;;;;;4.03;3.05;;;;;;;19.45;51.63;101347.25;4952893;29;20043;-78
2023/04/30 11:22:22;;;;;;;3.70;3.30;;;;;;;18.94;52.63;101346.75;4952458;29;20414;-77
2023/04/30 11:25:05;;;;;;;4.68;3.80;;;;;;;18.85;52.70;101340.78;4950973;29;20051;-77